Главная страница
METAR-TAF:

METAR-TAF

Аэропорты :

Гуйлинь, Китай

широта: 25-20N, долгота: 110-18E, высота над уровнем моря: 166 м

Текущие метеонаблюдения

Эта сводка был подготовлена 29 минут назад, в 18:00 UTC
Ветер 2 Узел переменных направлений
Температура 15°C
Влажность 88%
Давление 1018 hPa
Видимость: 8000 м
Отдельные облака на высоте 4000 фута
Сплошная облачность на высоте 6000 фута

METAR: ZGKL 151800Z VRB01MPS 8000 SCT040 OVC060 15/13 Q1018 NOSIG

Время: 02:29 (18:29 UTC)

Прогноз

Эта сводка был подготовлена 3 часа и 19 минут назад, в 15:10 UTC
Прогноз действительный с 15-го 18 UTC до 16-го 18 UTC
Ветер 6 Узел от северо-восточный
Видимость: 6000 м
небольшая облачность на высоте 800 фута
Рассеянная облачность на высоте 2600 фута
Сплошная облачность на высоте 4000 фута
небольшой дождь

TAF: ZGKL 151510Z 1518/1618 05003MPS 6000 -RA FEW008 BKN026 OVC040 TX17/1608Z TN14/1522Z

Метеонаблюдения и прогнозы для более 4000 аэропортов (сводки METAR и TAF).

Имеющиеся станции представлены на карте желтыми и красными точками.

Чтобы увидеть название станции, наведите на нее мышь.

Затем щелкните, чтобы увидеть метеонаблюдения и метеопрогнозы.

Управление картой: чтобы увеличить масштаб, щелкните зеленые кнопки с черным крестиком; чтобы уменьшить масштаб, щелкните зеленую кнопку с тире; для просмотра соседних карт щелкайте зеленые стрелки.


METAR-TAF: